Time;durP1;ratioP1;P1;durP2;ratioP2;P2;SDS_P1;SDS_P2;PMS_P1;PMS_P2;Temp;Humidity;BMP_temperature;BMP_pressure;BME280_temperature;BME280_humidity;BME280_pressure;Samples;Min_cycle;Max_cycle;Signal;HPM_P1;HPM_P2
2022/01/14 00:00:25;;;;;;;;;;;;;;;15.10;59.47;103389.44;1053740;28;829;-57
2022/01/14 00:01:16;;;;;;;;;;;;;;;15.09;59.67;103385.00;1053729;28;1917;-57
2022/01/14 00:02:06;;;;;;;;;;;;;;;15.09;59.64;103390.38;1053383;28;633;-58
2022/01/14 00:02:56;;;;;;;;;;;;;;;15.07;59.53;103382.38;1053865;28;673;-57
2022/01/14 00:03:47;;;;;;;;;;;;;;;15.07;59.72;103379.69;1053954;28;701;-58
2022/01/14 00:04:37;;;;;;;;;;;;;;;15.07;60.06;103385.06;1053776;28;829;-58
2022/01/14 00:05:28;;;;;;;;;;;;;;;15.07;59.56;103378.81;1054009;28;599;-57
2022/01/14 00:06:18;;;;;;;;;;;;;;;15.07;59.47;103376.13;1053969;28;633;-57
2022/01/14 00:07:08;;;;;;;;;;;;;;;15.06;59.57;103375.25;1053851;28;697;-58
2022/01/14 00:07:59;;;;;;;;;;;;;;;15.06;59.53;103382.44;1053972;28;662;-57
2022/01/14 00:08:49;;;;;;;;;;;;;;;15.06;59.52;103387.81;1053596;28;915;-58
2022/01/14 00:09:40;;;;;;;;;;;;;;;15.06;60.16;103379.75;1053727;28;1877;-57
2022/01/14 00:10:32;;;;;;;;;;;;;;;15.05;60.07;103383.41;1054501;28;663;-58
2022/01/14 00:11:22;;;;;;;;;;;;;;;15.04;60.03;103387.03;1054363;28;1930;-58
2022/01/14 00:12:18;;;;;;;;;;;;;;;15.04;59.49;103387.03;1054384;28;840;-57
2022/01/14 00:13:27;;;;;;;;;;;;;;;15.04;59.66;103392.41;1054383;28;879;-57
2022/01/14 00:15:24;;;;;;;;;;;;;;;15.03;59.47;103387.97;1054371;28;912;-58
2022/01/14 00:16:15;;;;;;;;;;;;;;;15.02;59.47;103384.41;1054338;28;685;-57
2022/01/14 00:17:05;;;;;;;;;;;;;;;15.01;59.98;103381.78;1054327;28;843;-58
2022/01/14 00:17:56;;;;;;;;;;;;;;;15.00;60.22;103377.34;1054510;28;692;-57
2022/01/14 00:18:46;;;;;;;;;;;;;;;15.00;59.84;103377.34;1054410;28;645;-57
2022/01/14 00:19:37;;;;;;;;;;;;;;;14.99;59.95;103373.81;1054391;28;770;-57
2022/01/14 00:20:27;;;;;;;;;;;;;;;14.99;60.13;103378.28;1054479;28;750;-58
2022/01/14 00:21:18;;;;;;;;;;;;;;;14.98;59.75;103372.06;1054234;28;1893;-58
2022/01/14 00:22:11;;;;;;;;;;;;;;;14.99;59.98;103380.97;1054382;28;708;-57
2022/01/14 00:23:01;;;;;;;;;;;;;;;14.98;59.55;103374.72;1053824;28;681;-57
2022/01/14 00:24:06;;;;;;;;;;;;;;;14.97;59.98;103370.31;1054477;28;637;-57
2022/01/14 00:32:54;;;;;;;;;;;;;;;14.93;59.95;103371.38;1054269;28;727;-57
2022/01/14 00:33:45;;;;;;;;;;;;;;;14.93;59.63;103372.25;1055841;28;1968;-58
2022/01/14 00:34:35;;;;;;;;;;;;;;;14.92;59.83;103373.19;1057767;28;711;-57
2022/01/14 00:35:26;;;;;;;;;;;;;;;14.91;60.00;103366.06;1057081;28;625;-57
2022/01/14 00:36:16;;;;;;;;;;;;;;;14.92;60.26;103369.63;1057900;28;771;-57
2022/01/14 00:37:06;;;;;;;;;;;;;;;14.92;59.82;103377.69;1057969;28;688;-58
2022/01/14 00:37:57;;;;;;;;;;;;;;;14.92;59.92;103370.50;1057933;28;727;-58
2022/01/14 00:38:47;;;;;;;;;;;;;;;14.92;59.63;103372.31;1057936;28;638;-57
2022/01/14 00:39:38;;;;;;;;;;;;;;;14.91;59.86;103366.06;1057994;28;655;-57
2022/01/14 00:40:28;;;;;;;;;;;;;;;14.90;60.15;103364.31;1057543;28;705;-57
2022/01/14 00:41:19;;;;;;;;;;;;;;;14.90;60.07;103363.44;1057827;28;1956;-57
2022/01/14 00:42:09;;;;;;;;;;;;;;;14.90;60.05;103363.44;1057969;28;855;-57
2022/01/14 00:42:59;;;;;;;;;;;;;;;14.89;59.99;103367.06;1057793;28;802;-58
2022/01/14 00:43:54;;;;;;;;;;;;;;;14.89;59.98;103361.69;1058010;28;578;-57
2022/01/14 00:44:45;;;;;;;;;;;;;;;14.89;59.75;103359.88;1057904;28;704;-58
2022/01/14 00:45:35;;;;;;;;;;;;;;;14.88;59.72;103360.81;1057783;28;1889;-58
2022/01/14 00:46:26;;;;;;;;;;;;;;;14.89;60.08;103362.56;1054248;28;770;-58
2022/01/14 00:47:16;;;;;;;;;;;;;;;14.89;59.98;103365.25;1053207;28;617;-58
2022/01/14 00:48:06;;;;;;;;;;;;;;;14.88;59.66;103360.81;1053682;28;700;-57
2022/01/14 00:48:57;;;;;;;;;;;;;;;14.87;59.77;103356.38;1053708;28;1441;-57
2022/01/14 00:49:47;;;;;;;;;;;;;;;14.87;60.04;103356.38;1053444;28;625;-58
2022/01/14 00:50:41;;;;;;;;;;;;;;;14.87;60.16;103356.38;1054124;28;928;-57
2022/01/14 00:51:32;;;;;;;;;;;;;;;14.88;60.03;103354.56;1052770;28;735;-57
2022/01/14 00:52:22;;;;;;;;;;;;;;;14.86;60.13;103351.97;1054269;28;664;-57
2022/01/14 00:53:13;;;;;;;;;;;;;;;14.85;60.32;103344.88;1053633;28;771;-58
2022/01/14 00:54:03;;;;;;;;;;;;;;;14.85;59.95;103347.56;1053785;28;645;-57
2022/01/14 00:54:54;;;;;;;;;;;;;;;14.85;59.95;103344.00;1053523;28;866;-57
2022/01/14 00:55:54;;;;;;;;;;;;;;;14.85;60.08;103347.56;1053789;28;626;-57
2022/01/14 00:56:49;;;;;;;;;;;;;;;14.85;59.96;103346.69;1053494;28;924;-58
2022/01/14 00:59:51;;;;;;;;;;;;;;;14.84;60.50;103348.50;1054291;28;880;-57
2022/01/14 01:00:41;;;;;;;;;;;;;;;14.83;60.17;103345.88;1053777;28;700;-57
2022/01/14 01:01:31;;;;;;;;;;;;;;;14.83;59.82;103348.56;1053567;28;1963;-56
2022/01/14 01:02:22;;;;;;;;;;;;;;;14.82;60.07;103350.38;1053628;28;591;-57
2022/01/14 01:03:12;;;;;;;;;;;;;;;14.83;60.22;103354.78;1053448;28;833;-57
2022/01/14 01:04:03;;;;;;;;;;;;;;;14.83;60.41;103353.91;1053659;28;613;-57
2022/01/14 01:04:55;;;;;;;;;;;;;;;14.80;60.50;103354.91;1053745;28;872;-57
2022/01/14 01:05:45;;;;;;;;;;;;;;;14.82;60.52;103352.19;1053040;28;681;-57
2022/01/14 01:06:36;;;;;;;;;;;;;;;14.81;60.53;103353.09;1053715;28;681;-57
2022/01/14 01:07:26;;;;;;;;;;;;;;;14.81;60.31;103353.09;1052754;28;690;-57
2022/01/14 01:08:22;;;;;;;;;;;;;;;14.81;59.90;103345.06;1053587;28;649;-57
2022/01/14 01:09:13;;;;;;;;;;;;;;;14.80;59.67;103352.22;1053458;28;809;-57
2022/01/14 01:10:03;;;;;;;;;;;;;;;14.80;59.89;103352.22;1057438;28;1856;-57
2022/01/14 01:10:54;;;;;;;;;;;;;;;14.81;60.46;103343.25;1057906;28;617;-57
2022/01/14 01:11:52;;;;;;;;;;;;;;;14.81;60.51;103347.75;1055395;28;1826;-57
2022/01/14 01:12:55;;;;;;;;;;;;;;;14.80;60.21;103346.88;1053507;28;822;-58
2022/01/14 01:13:50;;;;;;;;;;;;;;;14.80;59.98;103344.19;1054239;28;703;-57
2022/01/14 01:14:47;;;;;;;;;;;;;;;14.79;60.35;103338.88;1054270;28;636;-57
2022/01/14 01:15:37;;;;;;;;;;;;;;;14.79;59.91;103345.13;1054134;28;720;-57
2022/01/14 01:16:28;;;;;;;;;;;;;;;14.79;59.95;103346.94;1054244;28;681;-57
2022/01/14 01:17:18;;;;;;;;;;;;;;;14.78;60.85;103332.63;1054207;28;708;-57
2022/01/14 01:18:09;;;;;;;;;;;;;;;14.77;60.35;103333.56;1054094;28;692;-57
2022/01/14 01:18:59;;;;;;;;;;;;;;;14.77;60.82;103338.94;1054228;28;624;-57
2022/01/14 01:19:50;;;;;;;;;;;;;;;14.78;60.75;103337.13;1054189;28;840;-57
2022/01/14 01:20:40;;;;;;;;;;;;;;;14.77;60.20;103335.38;1054325;28;649;-57
2022/01/14 01:21:30;;;;;;;;;;;;;;;14.76;60.14;103334.50;1055898;28;1897;-57
2022/01/14 01:22:21;;;;;;;;;;;;;;;14.77;60.37;103335.38;1057746;28;645;-57
2022/01/14 01:23:11;;;;;;;;;;;;;;;14.75;60.13;103332.75;1057863;28;786;-57
2022/01/14 01:24:02;;;;;;;;;;;;;;;14.76;60.63;103339.00;1057616;28;665;-57
2022/01/14 01:24:52;;;;;;;;;;;;;;;14.74;60.70;103336.38;1057875;28;653;-57
2022/01/14 01:25:52;;;;;;;;;;;;;;;14.73;60.30;103328.38;1057840;28;613;-57
2022/01/14 01:26:43;;;;;;;;;;;;;;;14.74;60.77;103332.81;1057632;28;913;-57
2022/01/14 01:27:38;;;;;;;;;;;;;;;14.73;60.65;103329.25;1057243;28;699;-57
2022/01/14 01:28:29;;;;;;;;;;;;;;;14.73;60.60;103334.63;1057182;28;692;-57
2022/01/14 01:30:37;;;;;;;;;;;;;;;14.74;60.28;103322.97;1058286;28;880;-58
2022/01/14 01:31:36;;;;;;;;;;;;;;;14.73;60.14;103329.25;1057797;28;743;-58
2022/01/14 01:32:26;;;;;;;;;;;;;;;14.72;60.64;103330.19;1053762;28;774;-58
2022/01/14 01:33:17;;;;;;;;;;;;;;;14.72;60.66;103321.28;1054495;28;673;-57
2022/01/14 01:34:07;;;;;;;;;;;;;;;14.72;60.84;103329.31;1058338;28;847;-57
2022/01/14 01:34:57;;;;;;;;;;;;;;;14.71;60.54;103325.78;1057754;28;700;-57
2022/01/14 01:35:48;;;;;;;;;;;;;;;14.71;60.46;103323.09;1057753;28;668;-56
2022/01/14 01:36:38;;;;;;;;;;;;;;;14.70;61.11;103326.69;1057561;28;916;-57
2022/01/14 01:37:29;;;;;;;;;;;;;;;14.71;60.37;103319.53;1057812;28;661;-56
2022/01/14 01:38:19;;;;;;;;;;;;;;;14.71;60.28;103319.53;1057657;28;768;-57
2022/01/14 01:39:10;;;;;;;;;;;;;;;14.70;60.80;103324.03;1053798;28;943;-57
2022/01/14 01:40:00;;;;;;;;;;;;;;;14.70;60.34;103329.38;1054437;28;660;-57
2022/01/14 01:40:50;;;;;;;;;;;;;;;14.70;60.85;103328.50;1053570;28;899;-57
2022/01/14 01:41:41;;;;;;;;;;;;;;;14.69;60.76;103332.16;1053723;28;901;-57
2022/01/14 01:42:31;;;;;;;;;;;;;;;14.68;60.33;103336.66;1057625;28;756;-57
2022/01/14 01:43:25;;;;;;;;;;;;;;;14.70;60.33;103328.50;1057116;28;622;-57
2022/01/14 01:44:15;;;;;;;;;;;;;;;14.69;60.32;103321.44;1057729;28;676;-57
2022/01/14 01:45:09;;;;;;;;;;;;;;;14.69;60.38;103316.06;1057593;28;847;-57
2022/01/14 01:46:00;;;;;;;;;;;;;;;14.67;60.68;103318.81;1056294;28;1920;-57
2022/01/14 01:46:50;;;;;;;;;;;;;;;14.67;60.40;103318.81;1053504;28;948;-57
2022/01/14 01:47:41;;;;;;;;;;;;;;;14.68;60.79;103325.06;1053459;28;688;-57
2022/01/14 01:48:32;;;;;;;;;;;;;;;14.67;60.64;103329.53;1053563;28;860;-57
2022/01/14 01:49:22;;;;;;;;;;;;;;;14.68;60.35;103319.69;1053527;28;655;-57
2022/01/14 01:50:13;;;;;;;;;;;;;;;14.65;60.21;103320.69;1053560;28;614;-57
2022/01/14 01:51:03;;;;;;;;;;;;;;;14.65;60.88;103320.69;1053500;28;848;-57
2022/01/14 01:51:53;;;;;;;;;;;;;;;14.64;60.45;103320.75;1053528;28;626;-57
2022/01/14 01:52:44;;;;;;;;;;;;;;;14.63;60.80;103322.56;1053539;28;767;-57
2022/01/14 01:53:34;;;;;;;;;;;;;;;14.62;60.52;103315.44;1053335;28;723;-57
2022/01/14 01:54:25;;;;;;;;;;;;;;;14.63;60.83;103319.00;1056200;28;1786;-57
2022/01/14 01:55:15;;;;;;;;;;;;;;;14.62;60.60;103314.56;1057786;28;738;-57
2022/01/14 01:56:06;;;;;;;;;;;;;;;14.62;60.76;103318.13;1057596;28;809;-56
2022/01/14 01:56:56;;;;;;;;;;;;;;;14.63;61.11;103317.19;1057638;28;917;-56
2022/01/14 01:57:46;;;;;;;;;;;;;;;14.62;61.10;103319.94;1057110;28;691;-57
2022/01/14 01:58:37;;;;;;;;;;;;;;;14.61;60.58;103316.38;1057747;28;609;-56
2022/01/14 01:59:27;;;;;;;;;;;;;;;14.60;60.38;103311.94;1056962;28;707;-57
2022/01/14 02:00:18;;;;;;;;;;;;;;;14.59;60.45;103313.75;1057747;28;668;-57
2022/01/14 02:01:08;;;;;;;;;;;;;;;14.60;61.14;103320.00;1057691;28;643;-56
2022/01/14 02:01:59;;;;;;;;;;;;;;;14.59;60.74;103327.19;1057689;28;653;-57
2022/01/14 02:02:49;;;;;;;;;;;;;;;14.61;60.80;103324.44;1058878;28;712;-57
2022/01/14 02:03:39;;;;;;;;;;;;;;;14.59;60.19;103319.13;1059151;28;832;-57
2022/01/14 02:04:30;;;;;;;;;;;;;;;14.59;60.43;103312.88;1058416;28;2010;-57
2022/01/14 02:05:20;;;;;;;;;;;;;;;14.57;60.91;103317.44;1059024;28;628;-57
2022/01/14 02:06:11;;;;;;;;;;;;;;;14.56;61.02;103313.00;1059083;28;636;-57
2022/01/14 02:07:01;;;;;;;;;;;;;;;14.57;60.51;103314.75;1059138;28;732;-57
2022/01/14 02:07:52;;;;;;;;;;;;;;;14.56;60.53;103323.75;1059081;28;927;-57
2022/01/14 02:08:42;;;;;;;;;;;;;;;14.56;60.48;103321.06;1058426;28;652;-58
2022/01/14 02:09:33;;;;;;;;;;;;;;;14.55;60.68;103314.81;1059074;28;699;-56
2022/01/14 02:10:24;;;;;;;;;;;;;;;14.52;61.14;103308.69;1059070;28;640;-56
2022/01/14 02:11:15;;;;;;;;;;;;;;;14.50;61.05;103313.28;1058358;28;600;-57
2022/01/14 02:12:09;;;;;;;;;;;;;;;14.50;60.69;103305.25;1059098;28;923;-57
2022/01/14 02:13:01;;;;;;;;;;;;;;;14.50;60.94;103308.78;1059127;28;782;-57
2022/01/14 02:13:54;;;;;;;;;;;;;;;14.49;61.14;103309.72;1058290;28;823;-56
2022/01/14 02:16:57;;;;;;;;;;;;;;;14.49;61.08;103319.59;1057495;28;1948;-57
2022/01/14 02:18:23;;;;;;;;;;;;;;;14.48;60.51;103321.41;1058993;28;665;-56
2022/01/14 02:19:15;;;;;;;;;;;;;;;14.46;61.31;103320.59;1056024;28;662;-58
2022/01/14 02:22:24;;;;;;;;;;;;;;;14.47;60.36;103316.97;1055406;28;675;-58
2022/01/14 02:23:16;;;;;;;;;;;;;;;14.46;61.24;103309.84;1055315;28;734;-57
2022/01/14 02:25:11;;;;;;;;;;;;;;;14.48;60.88;103325.88;1055395;28;662;-57
2022/01/14 02:26:01;;;;;;;;;;;;;;;14.47;60.99;103326.81;1054684;28;695;-57
2022/01/14 02:26:52;;;;;;;;;;;;;;;14.46;60.60;103317.03;1055970;28;1016;-57
2022/01/14 02:27:43;;;;;;;;;;;;;;;14.46;60.75;103317.03;1055414;28;636;-57
2022/01/14 02:28:33;;;;;;;;;;;;;;;14.46;60.43;103314.34;1055447;28;893;-57
2022/01/14 02:29:24;;;;;;;;;;;;;;;14.45;60.72;103313.47;1055311;28;605;-57
2022/01/14 02:30:14;;;;;;;;;;;;;;;14.44;60.91;103306.38;1055362;28;688;-57
2022/01/14 02:31:05;;;;;;;;;;;;;;;14.46;60.54;103308.97;1055333;28;629;-57
2022/01/14 02:31:55;;;;;;;;;;;;;;;14.46;60.75;103303.63;1055467;28;557;-58
2022/01/14 02:32:45;;;;;;;;;;;;;;;14.44;61.11;103305.50;1055271;28;742;-58
2022/01/14 02:33:36;;;;;;;;;;;;;;;14.43;60.48;103304.63;1055454;28;680;-58
2022/01/14 02:34:26;;;;;;;;;;;;;;;14.43;60.40;103309.97;1055430;28;701;-58
2022/01/14 02:35:17;;;;;;;;;;;;;;;14.43;60.90;103309.09;1055347;28;597;-58
2022/01/14 02:36:07;;;;;;;;;;;;;;;14.43;60.67;103304.63;1055452;28;669;-58
2022/01/14 02:36:57;;;;;;;;;;;;;;;14.44;61.02;103303.69;1055398;28;723;-58
2022/01/14 02:37:48;;;;;;;;;;;;;;;14.44;59.82;103308.16;1055432;28;708;-58
2022/01/14 02:38:38;;;;;;;;;;;;;;;14.44;60.80;103310.84;1054866;28;641;-59
2022/01/14 02:39:29;;;;;;;;;;;;;;;14.45;60.38;103308.09;1054734;28;692;-58
2022/01/14 02:40:19;;;;;;;;;;;;;;;14.44;60.83;103309.03;1054817;28;633;-58
2022/01/14 02:41:10;;;;;;;;;;;;;;;14.45;60.90;103313.47;1054654;28;598;-58
2022/01/14 02:42:00;;;;;;;;;;;;;;;14.44;60.34;103305.50;1054298;28;1013;-58
2022/01/14 02:42:51;;;;;;;;;;;;;;;14.43;60.11;103301.06;1054797;28;763;-58
2022/01/14 02:43:41;;;;;;;;;;;;;;;14.41;60.28;103309.16;1054361;28;649;-58
2022/01/14 02:44:33;;;;;;;;;;;;;;;14.41;61.07;103306.47;1054037;28;670;-58
2022/01/14 02:45:27;;;;;;;;;;;;;;;14.41;60.33;103301.13;1054739;28;720;-58
2022/01/14 02:46:18;;;;;;;;;;;;;;;14.42;60.58;103307.34;1058765;28;1223;-59
2022/01/14 02:47:08;;;;;;;;;;;;;;;14.42;60.84;103305.53;1058986;28;625;-59
2022/01/14 02:47:58;;;;;;;;;;;;;;;14.42;60.67;103302.00;1058230;28;673;-59
2022/01/14 02:48:49;;;;;;;;;;;;;;;14.39;60.67;103296.72;1058895;28;1219;-58
2022/01/14 02:49:39;;;;;;;;;;;;;;;14.39;60.25;103302.97;1058543;28;924;-58
2022/01/14 02:50:43;;;;;;;;;;;;;;;14.41;59.89;103305.59;1056842;28;1877;-58
2022/01/14 02:51:34;;;;;;;;;;;;;;;14.39;60.58;103299.41;1058957;28;796;-58
2022/01/14 02:52:40;;;;;;;;;;;;;;;14.38;60.97;103294.97;1059120;28;697;-58
2022/01/14 02:54:31;;;;;;;;;;;;;;;14.40;60.29;103285.94;1059578;28;720;-58
2022/01/14 02:55:22;;;;;;;;;;;;;;;14.38;61.08;103286.91;1059023;28;621;-58
2022/01/14 02:56:15;;;;;;;;;;;;;;;14.38;60.19;103290.47;1058907;28;676;-58
2022/01/14 02:57:05;;;;;;;;;;;;;;;14.39;60.77;103286.84;1058955;28;724;-58
2022/01/14 02:57:55;;;;;;;;;;;;;;;14.39;60.79;103291.34;1058392;28;868;-58
2022/01/14 02:58:46;;;;;;;;;;;;;;;14.40;60.67;103287.72;1059015;28;679;-57
2022/01/14 02:59:37;;;;;;;;;;;;;;;14.40;60.88;103285.94;1058928;28;641;-58
2022/01/14 03:00:28;;;;;;;;;;;;;;;14.40;59.94;103287.72;1058512;28;790;-57
2022/01/14 03:01:18;;;;;;;;;;;;;;;14.38;60.50;103286.91;1058968;28;1913;-58
2022/01/14 03:02:12;;;;;;;;;;;;;;;14.38;60.01;103290.47;1054263;28;2361;-57
2022/01/14 03:03:02;;;;;;;;;;;;;;;14.39;60.05;103291.34;1054827;28;797;-57
2022/01/14 03:03:53;;;;;;;;;;;;;;;14.39;60.19;103291.34;1054699;28;960;-58
2022/01/14 03:04:43;;;;;;;;;;;;;;;14.39;60.21;103294.03;1054742;28;641;-57
2022/01/14 03:05:33;;;;;;;;;;;;;;;14.38;60.23;103292.28;1054968;28;642;-57
2022/01/14 03:06:24;;;;;;;;;;;;;;;14.37;60.35;103299.47;1054636;28;851;-57
2022/01/14 03:07:14;;;;;;;;;;;;;;;14.38;60.28;103295.84;1054818;28;697;-57
2022/01/14 03:08:04;;;;;;;;;;;;;;;14.39;60.70;103292.22;1054703;28;800;-57
2022/01/14 03:08:55;;;;;;;;;;;;;;;14.39;60.75;103291.34;1054653;28;704;-57
2022/01/14 03:09:45;;;;;;;;;;;;;;;14.39;60.70;103285.97;1054776;28;728;-57
2022/01/14 03:10:36;;;;;;;;;;;;;;;14.38;60.76;103284.25;1055335;28;693;-58
2022/01/14 03:11:26;;;;;;;;;;;;;;;14.38;60.93;103290.47;1055379;28;649;-59
2022/01/14 03:12:17;;;;;;;;;;;;;;;14.38;60.74;103286.91;1053875;28;706;-58
2022/01/14 03:13:07;;;;;;;;;;;;;;;14.38;60.08;103286.91;1054781;28;639;-59
2022/01/14 03:13:57;;;;;;;;;;;;;;;14.37;60.76;103282.50;1055636;28;1874;-60
2022/01/14 03:14:48;;;;;;;;;;;;;;;14.36;60.61;103281.63;1057116;28;829;-58
2022/01/14 03:15:38;;;;;;;;;;;;;;;14.36;60.63;103278.06;1058453;28;625;-57
2022/01/14 03:16:31;;;;;;;;;;;;;;;14.36;60.41;103281.63;1057634;28;898;-57
2022/01/14 03:17:21;;;;;;;;;;;;;;;14.34;60.99;103275.44;1058279;28;724;-56
2022/01/14 03:18:12;;;;;;;;;;;;;;;14.35;60.93;103281.69;1058176;28;609;-56
2022/01/14 03:19:07;;;;;;;;;;;;;;;14.34;60.43;103287.97;1058301;28;860;-56
2022/01/14 03:19:59;;;;;;;;;;;;;;;14.33;60.27;103281.75;1058236;28;688;-57
2022/01/14 03:20:54;;;;;;;;;;;;;;;14.32;61.00;103276.47;1058288;28;834;-56
2022/01/14 03:21:44;;;;;;;;;;;;;;;14.30;60.29;103276.53;1058340;28;743;-57
2022/01/14 03:22:36;;;;;;;;;;;;;;;14.30;60.38;103281.03;1057877;28;852;-56
2022/01/14 03:23:26;;;;;;;;;;;;;;;14.30;60.93;103278.34;1058410;28;704;-56
2022/01/14 03:24:23;;;;;;;;;;;;;;;14.30;61.09;103275.66;1058218;28;684;-55
2022/01/14 03:26:23;;;;;;;;;;;;;;;14.31;61.07;103282.78;1055169;28;625;-53
2022/01/14 03:27:13;;;;;;;;;;;;;;;14.31;61.21;103285.44;1054607;28;878;-54
2022/01/14 03:28:03;;;;;;;;;;;;;;;14.30;60.59;103291.75;1054548;28;672;-55
2022/01/14 03:28:54;;;;;;;;;;;;;;;14.28;60.37;103290.94;1054579;28;836;-56
2022/01/14 03:29:44;;;;;;;;;;;;;;;14.30;60.45;103292.63;1054666;28;673;-57
2022/01/14 03:30:35;;;;;;;;;;;;;;;14.31;60.21;103298.88;1055320;28;686;-57
2022/01/14 03:31:25;;;;;;;;;;;;;;;14.30;60.32;103297.13;1054594;28;762;-57
2022/01/14 03:32:16;;;;;;;;;;;;;;;14.30;60.35;103297.13;1054616;28;670;-57
2022/01/14 03:33:06;;;;;;;;;;;;;;;14.31;60.34;103297.06;1055086;28;798;-57
2022/01/14 03:33:56;;;;;;;;;;;;;;;14.30;60.45;103289.94;1054651;28;709;-57
2022/01/14 03:34:47;;;;;;;;;;;;;;;14.30;60.73;103289.06;1054515;28;639;-57
2022/01/14 03:35:37;;;;;;;;;;;;;;;14.29;60.44;103292.69;1054587;28;841;-56
2022/01/14 03:36:28;;;;;;;;;;;;;;;14.29;60.74;103287.31;1053450;28;669;-57
2022/01/14 03:37:18;;;;;;;;;;;;;;;14.26;60.72;103291.00;1054510;28;680;-57
2022/01/14 03:38:08;;;;;;;;;;;;;;;14.27;61.00;103287.38;1055081;28;690;-56
2022/01/14 03:38:59;;;;;;;;;;;;;;;14.25;60.21;103287.44;1055785;27;630;-56
2022/01/14 03:39:49;;;;;;;;;;;;;;;14.24;60.26;103288.38;1054737;28;770;-56
2022/01/14 03:40:40;;;;;;;;;;;;;;;14.22;60.91;103284.88;1054682;28;674;-57
2022/01/14 03:41:30;;;;;;;;;;;;;;;14.23;60.45;103288.44;1054444;28;1955;-56
2022/01/14 03:42:20;;;;;;;;;;;;;;;14.21;60.93;103282.25;1054439;28;775;-57
2022/01/14 03:43:11;;;;;;;;;;;;;;;14.23;60.85;103280.38;1054483;28;692;-58
2022/01/14 03:44:02;;;;;;;;;;;;;;;14.21;60.71;103280.44;1055884;27;685;-58
2022/01/14 03:44:52;;;;;;;;;;;;;;;14.22;60.79;103281.31;1054652;28;742;-58
2022/01/14 03:45:42;;;;;;;;;;;;;;;14.21;60.34;103275.09;1054521;28;739;-58
2022/01/14 03:46:33;;;;;;;;;;;;;;;14.22;60.99;103274.16;1054591;28;680;-58
2022/01/14 03:47:23;;;;;;;;;;;;;;;14.23;60.73;103275.03;1054646;28;680;-58
2022/01/14 03:48:14;;;;;;;;;;;;;;;14.21;60.50;103277.78;1054538;28;621;-58
2022/01/14 03:49:04;;;;;;;;;;;;;;;14.21;60.96;103277.78;1052750;28;1397;-59
2022/01/14 03:49:54;;;;;;;;;;;;;;;14.20;60.99;103270.66;1054624;28;967;-58
2022/01/14 03:50:45;;;;;;;;;;;;;;;14.22;60.26;103284.00;1054661;28;613;-58
2022/01/14 03:51:35;;;;;;;;;;;;;;;14.22;61.02;103284.88;1054647;28;703;-58
2022/01/14 03:52:26;;;;;;;;;;;;;;;14.22;60.79;103276.84;1054592;28;664;-58
2022/01/14 03:53:17;;;;;;;;;;;;;;;14.20;61.14;103278.69;1054535;28;656;-59
2022/01/14 03:54:08;;;;;;;;;;;;;;;14.21;61.09;103271.53;1055021;28;867;-59
2022/01/14 03:54:58;;;;;;;;;;;;;;;14.20;61.09;103272.47;1054012;28;668;-59
2022/01/14 03:55:49;;;;;;;;;;;;;;;14.18;60.25;103271.66;1053327;28;626;-59
2022/01/14 03:56:39;;;;;;;;;;;;;;;14.19;60.48;103271.59;1053280;28;999;-59
2022/01/14 03:57:29;;;;;;;;;;;;;;;14.19;60.58;103262.66;1054891;28;628;-58
2022/01/14 03:58:20;;;;;;;;;;;;;;;14.18;60.90;103264.47;1054412;28;759;-59
2022/01/14 03:59:10;;;;;;;;;;;;;;;14.20;60.94;103259.06;1054977;28;1308;-59
2022/01/14 04:00:01;;;;;;;;;;;;;;;14.19;60.50;103263.53;1053825;28;766;-59
2022/01/14 04:00:51;;;;;;;;;;;;;;;14.19;60.74;103262.66;1054985;28;650;-59
2022/01/14 04:01:41;;;;;;;;;;;;;;;14.18;60.84;103269.84;1055033;28;1910;-59
2022/01/14 04:02:32;;;;;;;;;;;;;;;14.17;60.15;103273.47;1055010;28;918;-60
2022/01/14 04:03:22;;;;;;;;;;;;;;;14.16;60.28;103270.84;1055004;28;699;-59
2022/01/14 04:04:13;;;;;;;;;;;;;;;14.14;60.82;103260.22;1055048;28;671;-58
2022/01/14 04:05:03;;;;;;;;;;;;;;;14.16;60.40;103268.16;1055579;27;704;-58
2022/01/14 04:05:54;;;;;;;;;;;;;;;14.14;60.71;103262.88;1054477;28;657;-57
2022/01/14 04:06:44;;;;;;;;;;;;;;;14.13;60.98;103258.47;1055075;28;887;-57
2022/01/14 04:07:34;;;;;;;;;;;;;;;14.15;60.49;103266.44;1055094;28;633;-57
2022/01/14 04:08:25;;;;;;;;;;;;;;;14.15;60.08;103269.13;1054981;28;630;-57
2022/01/14 04:09:15;;;;;;;;;;;;;;;14.15;60.93;103266.44;1054972;28;756;-58
2022/01/14 04:10:10;;;;;;;;;;;;;;;14.15;60.83;103261.91;1054478;28;691;-57
2022/01/14 04:11:02;;;;;;;;;;;;;;;14.17;60.18;103259.19;1055545;27;874;-58
2022/01/14 04:11:52;;;;;;;;;;;;;;;14.15;60.73;103264.59;1055501;27;924;-57
2022/01/14 04:12:55;;;;;;;;;;;;;;;14.17;60.99;103269.91;1054367;28;854;-57
2022/01/14 04:13:52;;;;;;;;;;;;;;;14.17;60.10;103273.47;1053217;28;676;-57
2022/01/14 04:15:36;;;;;;;;;;;;;;;14.19;60.23;103274.28;1055648;27;637;-58
2022/01/14 04:16:27;;;;;;;;;;;;;;;14.19;60.16;103279.63;1055741;27;644;-57
2022/01/14 04:17:17;;;;;;;;;;;;;;;14.17;60.13;103277.94;1055460;27;883;-57
2022/01/14 04:18:08;;;;;;;;;;;;;;;14.16;61.08;103273.53;1055079;28;637;-57
2022/01/14 04:18:58;;;;;;;;;;;;;;;14.14;60.46;103276.28;1054992;28;958;-58
2022/01/14 04:19:49;;;;;;;;;;;;;;;14.14;60.59;103273.63;1053124;28;771;-57
2022/01/14 04:20:39;;;;;;;;;;;;;;;14.15;60.86;103277.16;1054961;28;625;-57
2022/01/14 04:21:29;;;;;;;;;;;;;;;14.14;60.34;103276.28;1054925;28;1898;-57
2022/01/14 04:22:20;;;;;;;;;;;;;;;14.15;60.08;103274.50;1054922;28;647;-58
2022/01/14 04:23:13;;;;;;;;;;;;;;;14.14;60.31;103267.38;1054875;28;754;-57
2022/01/14 04:24:04;;;;;;;;;;;;;;;14.13;60.38;103266.50;1054939;28;647;-58
2022/01/14 04:24:54;;;;;;;;;;;;;;;14.14;60.97;103265.56;1055036;28;621;-57
2022/01/14 04:25:45;;;;;;;;;;;;;;;14.13;60.45;103263.81;1054643;28;783;-58
2022/01/14 04:26:35;;;;;;;;;;;;;;;14.15;60.07;103267.28;1054823;28;878;-58
2022/01/14 04:27:25;;;;;;;;;;;;;;;14.15;59.98;103264.59;1053239;28;766;-58
2022/01/14 04:28:18;;;;;;;;;;;;;;;14.15;60.83;103261.09;1054940;28;688;-57
2022/01/14 04:29:08;;;;;;;;;;;;;;;14.16;60.06;103257.44;1054433;28;1664;-57
2022/01/14 04:29:58;;;;;;;;;;;;;;;14.15;60.47;103253.88;1057364;28;1731;-58
2022/01/14 04:30:54;;;;;;;;;;;;;;;14.14;60.64;103252.16;1055850;28;1931;-58
2022/01/14 04:31:44;;;;;;;;;;;;;;;14.15;60.78;103245.00;1054376;28;860;-57
2022/01/14 04:32:35;;;;;;;;;;;;;;;14.14;61.00;103246.81;1054984;28;757;-57
2022/01/14 04:33:25;;;;;;;;;;;;;;;14.14;60.34;103249.47;1054886;28;621;-57
2022/01/14 04:34:16;;;;;;;;;;;;;;;14.16;60.34;103246.69;1054825;28;657;-58
2022/01/14 04:35:06;;;;;;;;;;;;;;;14.16;60.63;103244.91;1054335;28;758;-57
2022/01/14 04:36:00;;;;;;;;;;;;;;;14.14;60.23;103238.75;1054226;28;880;-58
2022/01/14 04:36:50;;;;;;;;;;;;;;;14.13;60.29;103237.00;1054318;28;605;-57
2022/01/14 04:37:40;;;;;;;;;;;;;;;14.14;59.96;103240.56;1054892;28;625;-58
2022/01/14 04:38:31;;;;;;;;;;;;;;;14.12;60.24;103243.31;1055293;28;1896;-58
2022/01/14 04:39:21;;;;;;;;;;;;;;;14.12;60.30;103239.75;1057917;28;732;-57
2022/01/14 04:40:15;;;;;;;;;;;;;;;14.13;60.46;103242.38;1057811;28;936;-57
2022/01/14 04:41:05;;;;;;;;;;;;;;;14.12;60.28;103240.63;1058080;28;796;-56
2022/01/14 04:41:56;;;;;;;;;;;;;;;14.14;60.22;103233.41;1057621;28;907;-56
2022/01/14 04:42:46;;;;;;;;;;;;;;;14.14;60.74;103227.16;1057361;28;677;-56
2022/01/14 04:43:37;;;;;;;;;;;;;;;14.13;60.81;103231.66;1058478;28;768;-55
2022/01/14 04:44:27;;;;;;;;;;;;;;;14.12;60.86;103227.22;1057288;28;692;-56
2022/01/14 04:45:40;;;;;;;;;;;;;;;14.10;60.67;103226.41;1058391;28;664;-56
2022/01/14 04:47:44;;;;;;;;;;;;;;;14.12;60.39;103224.53;1054202;28;879;-57
2022/01/14 04:48:34;;;;;;;;;;;;;;;14.10;60.45;103223.72;1055670;28;1716;-57
2022/01/14 04:49:25;;;;;;;;;;;;;;;14.12;60.82;103229.91;1057849;28;1116;-56
2022/01/14 04:50:15;;;;;;;;;;;;;;;14.13;60.94;103214.69;1057305;28;629;-57
2022/01/14 04:51:05;;;;;;;;;;;;;;;14.13;60.82;103220.91;1057943;28;630;-57
2022/01/14 04:51:56;;;;;;;;;;;;;;;14.13;60.86;103220.03;1057300;28;704;-57
2022/01/14 04:52:47;;;;;;;;;;;;;;;14.13;60.98;103225.41;1057740;28;680;-57